Flight Track Log - Related Links

Times and Time Zones

All times are in EDT time to prevent confusion due to time zone crossing. See the RPA4911 flight status page for this flight to view local times or setup timezone preferences in your user account.

Time Position Orientation Groundspeed Altitude Reporting Facility
EDT Latitude Longitude Course Direction KTS MPH feet Rate Location/Type
Tue 09:49:25 PM 40.8172 -111.9786 352° North 156 180 4,900  Level Salt Lake Center
Tue 09:50:44 PM 40.8886 -111.9911 352° North 206 237 6,700 1,286 Climbing Salt Lake Center
Tue 09:51:17 PM 40.9106 -111.9958 351° North 197 227 7,300 1,475 Climbing Salt Lake Center
Tue 09:51:45 PM 40.9442 -112.0006 354° North 210 242 8,200 1,452 Climbing Salt Lake Center
Tue 09:52:19 PM 40.9697 -112.0058 351° North 207 238 8,800 1,500 Climbing Salt Lake Center
Tue 09:52:45 PM 41.0039 -112.0086 356° North 216 249 9,700 1,574 Climbing Salt Lake Center
Tue 09:53:20 PM 41.0375 -111.9894 23° Northeast 228 262 10,400 1,113 Climbing Salt Lake Center
Tue 09:54:22 PM 41.0258 -111.9078 101° East 243 280 11,500 1,113 Climbing Salt Lake Center
Tue 09:55:24 PM 40.9900 -111.8308 122° Southeast 254 292 12,700 1,171 Climbing Salt Lake Center
Tue 09:56:25 PM 40.9556 -111.7483 119° Southeast 257 296 13,900 1,122 Climbing Salt Lake Center
Tue 09:57:27 PM 40.9183 -111.6656 121° Southeast 259 298 15,000 1,317 Climbing Salt Lake Center
Tue 09:58:28 PM 40.8728 -111.5667 121° Southeast 261 300 16,600 1,415 Climbing Salt Lake Center
Tue 09:59:30 PM 40.8369 -111.4858 120° Southeast 258 297 17,900 1,065 Climbing Salt Lake Center
Tue 10:00:32 PM 40.8192 -111.3975 105° East 257 296 18,800 878 Climbing Salt Lake Center
Tue 10:01:33 PM 40.8147 -111.3031 94° East 259 298 19,700 829 Climbing Salt Lake Center
Tue 10:02:35 PM 40.8081 -111.2056 95° East 262 302 20,500 780 Climbing Salt Lake Center
Tue 10:03:36 PM 40.8014 -111.1078 95° East 265 305 21,300 780 Climbing Salt Lake Center
Tue 10:04:38 PM 40.7961 -111.0072 94° East 271 312 22,100 629 Climbing Salt Lake Center
Tue 10:05:40 PM 40.7889 -110.8836 94° East 278 320 22,600 488 Climbing Salt Lake Center
Tue 10:06:41 PM 40.7825 -110.7756 94° East 290 334 23,100 537 Climbing Salt Lake Center
Tue 10:07:43 PM 40.7761 -110.6667 94° East 293 337 23,700 532 Climbing Salt Lake Center
Tue 10:08:45 PM 40.7689 -110.5603 95° East 300 345 24,200 585 Climbing Salt Lake Center
Tue 10:09:46 PM 40.7622 -110.4372 94° East 301 346 24,900 390 Climbing Salt Lake Center
Tue 10:10:48 PM 40.7547 -110.3283 95° East 307 353 25,000 48 Climbing Salt Lake Center
Tue 10:11:50 PM 40.7458 -110.1967 95° East 318 366 25,000  Level Salt Lake Center
Tue 10:12:51 PM 40.7367 -110.0772 96° East 334 384 25,000  Level Salt Lake Center
Tue 10:13:53 PM 40.7289 -109.9361 94° East 340 391 25,000  Level Salt Lake Center
Tue 10:15:56 PM 40.7111 -109.6894 95° East 351 404 25,000  Level Salt Lake Center
Tue 10:16:58 PM 40.7011 -109.5464 95° East 351 404 25,000  Level Salt Lake Center
Tue 10:17:59 PM 40.6928 -109.4231 95° East 352 405 25,000  Level Salt Lake Center
Tue 10:19:01 PM 40.6819 -109.2792 96° East 352 405 25,000  Level Salt Lake Center
Tue 10:20:02 PM 40.6728 -109.1561 96° East 353 406 25,000  Level Salt Lake Center
Tue 10:21:04 PM 40.6511 -109.0156 101° East 353 406 25,000  Level Salt Lake Center
Tue 10:22:06 PM 40.6211 -108.8969 108° East 354 407 25,000  Level Salt Lake Center
Tue 10:23:07 PM 40.5875 -108.7581 108° East 355 409 25,000  Level Salt Lake Center
Tue 10:24:09 PM 40.5583 -108.6389 108° East 356 410 25,000  Level Salt Lake Center
Tue 10:25:10 PM 40.5300 -108.5194 107° East 357 411 25,000  Level Salt Lake Center
Tue 10:26:12 PM 40.4958 -108.3789 108° East 357 411 25,000  Level Salt Lake Center
Tue 10:26:43 PM 40.4836 -108.3200 105° East 357 411 25,000  Level Denver Center
Tue 10:27:44 PM 40.4811 -108.1736 91° East 357 411 25,000  Level Denver Center
Tue 10:28:46 PM 40.4775 -108.0497 92° East 357 411 25,000  Level Denver Center
Tue 10:29:48 PM 40.4731 -107.9247 93° East 357 411 25,000  Level Denver Center
Tue 10:30:50 PM 40.4675 -107.7806 93° East 357 411 25,000  Level Denver Center
Tue 10:31:52 PM 40.4633 -107.6558 92° East 357 411 25,000  Level Denver Center
Tue 10:32:54 PM 40.4578 -107.5106 93° East 357 411 25,000  Level Denver Center
Tue 10:33:56 PM 40.4533 -107.3864 93° East 357 411 25,000  Level Denver Center
Tue 10:34:58 PM 40.4469 -107.2428 93° East 357 411 25,000  Level Denver Center
Tue 10:36:00 PM 40.4414 -107.1189 93° East 357 411 25,000  Level Denver Center
Tue 10:37:02 PM 40.4339 -106.9733 94° East 357 411 25,000  Level Denver Center
Tue 10:38:04 PM 40.4294 -106.8486 93° East 357 411 25,000  Level Denver Center
Tue 10:39:05 PM 40.4231 -106.7022 93° East 358 412 25,000  Level Denver Center
Tue 10:40:07 PM 40.4167 -106.5719 94° East 358 412 25,000  Level Denver Center
Tue 10:41:09 PM 40.4108 -106.4389 93° East 359 413 25,000  Level Denver Center
Tue 10:42:11 PM 40.4042 -106.3083 94° East 359 413 25,000 -48 Level Denver Center
Tue 10:43:13 PM 40.3975 -106.1761 94° East 359 413 24,900 -823 Descending Denver Center
Tue 10:44:15 PM 40.3900 -106.0483 94° East 359 413 23,300 -1,694 Descending Denver Center
Tue 10:45:17 PM 40.3811 -105.8906 94° East 363 418 21,400 -1,645 Descending Denver Center
Tue 10:46:19 PM 40.3744 -105.7633 94° East 353 406 19,900 -1,463 Descending Denver Center
Tue 10:47:20 PM 40.3686 -105.6403 94° East 343 395 18,400 -1,415 Descending Denver Center
Tue 10:48:22 PM 40.3544 -105.5147 98° East 346 398 17,000 -1,403 Descending Denver Center
Tue 10:49:24 PM 40.3356 -105.3858 101° East 343 395 15,500 -1,355 Descending Denver Center
Tue 10:50:26 PM 40.3181 -105.2586 100° East 356 410 14,200 -1,210 Descending Denver Center
Tue 10:51:28 PM 40.3000 -105.1242 100° East 352 405 13,000 -581 Descending Denver Center
Tue 10:52:30 PM 40.2825 -105.0108 101° East 326 375 13,000 -488 Level Denver Center
Tue 10:53:31 PM 40.2583 -104.9183 109° East 278 320 12,000 -780 Descending Denver Center
Tue 10:54:33 PM 40.2142 -104.8344 125° Southeast 265 305 11,400 -919 Descending Denver Center
Tue 10:55:35 PM 40.1517 -104.7961 155° Southeast 251 289 10,100 -1,113 Descending Denver Center
Tue 10:56:37 PM 40.0881 -104.7542 153° Southeast 242 278 9,100 -1,306 Descending Denver Center
Tue 10:57:39 PM 40.0303 -104.7150 153° Southeast 238 274 7,400 -1,122 Descending Denver Center
Tue 10:58:40 PM 39.9714 -104.6958 166° South 217 250 6,800 -732 Descending Denver Center
Tue 10:59:42 PM 39.9275 -104.6956 180° South 146 168 5,900 -726 Descending Denver Center
Tue 11:00:44 PM 39.8925 -104.6961 181° South 129 148 5,300 -581 Descending Denver Center
Tue 11:02:00 PM 39.8617 -104.6732 164° South  Level Estimated
Tue 11:09:00 PM 39.8617 -104.6732 339° North  Level Estimated
Tue 11:10:00 PM 39.8617 -104.6732 339° North  Level Estimated

Login

Don't have an account? Register now (free) for customized features, flight alerts, and more!